createdAt,value
2022-10-21T00:01:06.198Z,22.60
2022-10-21T00:03:34.461Z,22.48
2022-10-21T00:06:04.841Z,21.23
2022-10-21T00:08:33.209Z,23.13
2022-10-21T00:11:03.342Z,22.30
2022-10-21T00:13:32.783Z,21.23
2022-10-21T00:16:02.930Z,22.42
2022-10-21T00:18:31.770Z,22.15
2022-10-21T00:21:00.373Z,21.73
2022-10-21T00:23:30.046Z,21.73
2022-10-21T00:25:58.786Z,22.38
2022-10-21T00:28:27.110Z,22.58
2022-10-21T00:30:57.938Z,22.48
2022-10-21T00:33:28.240Z,21.52
2022-10-21T00:36:01.553Z,21.30
2022-10-21T00:38:31.825Z,21.55
2022-10-21T00:41:00.306Z,21.48
2022-10-21T00:43:29.504Z,20.63
2022-10-21T00:46:01.507Z,22.85
2022-10-21T00:48:34.254Z,22.00
2022-10-21T00:51:06.861Z,22.10
2022-10-21T00:53:39.651Z,21.52
2022-10-21T00:56:15.608Z,21.85
2022-10-21T00:58:47.817Z,20.75
2022-10-21T01:01:19.391Z,22.00
2022-10-21T01:03:50.488Z,21.27
2022-10-21T01:06:21.877Z,21.58
2022-10-21T01:08:53.203Z,21.20
2022-10-21T01:11:23.576Z,21.15
2022-10-21T01:14:16.259Z,21.02
2022-10-21T01:16:51.783Z,21.92
2022-10-21T01:19:49.297Z,21.67
2022-10-21T01:22:29.187Z,21.58
2022-10-21T01:25:25.048Z,20.50
2022-10-21T01:28:02.015Z,20.02
2022-10-21T01:30:42.733Z,21.05
2022-10-21T01:33:39.453Z,21.15
2022-10-21T01:36:27.263Z,21.00
2022-10-21T01:39:04.194Z,19.92
2022-10-21T01:41:39.363Z,19.85
2022-10-21T01:44:14.589Z,20.38
2022-10-21T01:46:49.540Z,20.70
2022-10-21T01:49:24.738Z,21.25
2022-10-21T01:51:54.413Z,20.30
2022-10-21T01:54:27.881Z,20.58
2022-10-21T01:56:58.513Z,21.00
2022-10-21T01:59:30.001Z,20.15
2022-10-21T02:02:01.953Z,20.10
2022-10-21T02:04:31.874Z,19.90
2022-10-21T02:06:59.929Z,19.92
2022-10-21T02:09:28.086Z,19.65
2022-10-21T02:12:00.541Z,19.17
2022-10-21T02:14:33.450Z,20.50
2022-10-21T02:17:03.233Z,20.33
2022-10-21T02:22:02.617Z,20.77
2022-10-21T02:24:37.942Z,19.25
2022-10-21T02:27:06.526Z,20.58
2022-10-21T02:29:37.963Z,20.02
2022-10-21T02:32:21.005Z,20.27
2022-10-21T02:35:01.311Z,18.48
2022-10-21T02:37:34.140Z,20.63
2022-10-21T02:40:07.793Z,20.42
2022-10-21T02:42:40.790Z,20.00
2022-10-21T02:45:11.199Z,19.58
2022-10-21T02:47:41.417Z,19.98
2022-10-21T02:50:09.962Z,19.35
2022-10-21T02:52:37.970Z,19.50
2022-10-21T02:55:06.761Z,19.42
2022-10-21T02:57:34.865Z,19.80
2022-10-21T03:00:02.886Z,19.35
2022-10-21T03:02:30.882Z,18.10
2022-10-21T03:05:00.313Z,19.15
2022-10-21T03:07:28.354Z,18.95
2022-10-21T03:09:56.345Z,18.30
2022-10-21T03:12:24.313Z,18.35
2022-10-21T03:14:52.361Z,18.73
2022-10-21T03:17:22.856Z,19.33
2022-10-21T03:19:53.243Z,18.92
2022-10-21T03:22:22.593Z,19.80
2022-10-21T03:24:50.630Z,18.23
2022-10-21T03:27:18.828Z,17.88
2022-10-21T03:29:46.845Z,19.05
2022-10-21T03:32:14.830Z,19.27
2022-10-21T03:34:42.860Z,17.80
2022-10-21T03:37:10.841Z,17.15
2022-10-21T03:39:40.182Z,19.13
2022-10-21T03:42:08.227Z,18.35
2022-10-21T03:44:36.284Z,17.35
2022-10-21T03:47:04.281Z,17.15
2022-10-21T03:49:32.431Z,18.48
2022-10-21T03:52:00.514Z,17.10
2022-10-21T03:54:28.619Z,17.60
2022-10-21T03:56:58.038Z,18.08
2022-10-21T03:59:26.096Z,17.10
2022-10-21T04:01:54.158Z,17.92
2022-10-21T04:04:22.250Z,17.85
2022-10-21T04:06:50.361Z,18.00
2022-10-21T04:09:18.475Z,16.83
2022-10-21T04:11:46.562Z,17.10
2022-10-21T04:14:15.953Z,16.92
2022-10-21T04:16:44.078Z,18.20
2022-10-21T04:19:17.428Z,16.95
2022-10-21T04:21:45.550Z,17.35
2022-10-21T04:24:13.776Z,16.98
2022-10-21T04:26:42.594Z,18.70
2022-10-21T04:29:10.615Z,17.33
2022-10-21T04:31:39.974Z,18.23
2022-10-21T04:34:08.033Z,18.25
2022-10-21T04:36:36.018Z,18.92
2022-10-21T04:39:04.770Z,18.35
2022-10-21T04:41:32.780Z,18.13
2022-10-21T04:44:00.781Z,18.65
2022-10-21T04:46:28.791Z,16.95
2022-10-21T04:48:58.150Z,17.83
2022-10-21T04:51:26.246Z,17.38
2022-10-21T04:53:54.298Z,18.15
2022-10-21T04:56:22.322Z,17.85
2022-10-21T04:58:50.322Z,18.05
2022-10-21T05:01:18.438Z,19.17
2022-10-21T05:03:46.527Z,18.58
2022-10-21T05:06:15.927Z,18.45
2022-10-21T05:08:44.008Z,18.92
2022-10-21T05:11:12.086Z,19.00
2022-10-21T05:13:40.081Z,19.50
2022-10-21T05:16:08.598Z,18.35
2022-10-21T05:18:36.552Z,17.95
2022-10-21T05:21:04.794Z,19.00
2022-10-21T05:23:34.354Z,18.08
2022-10-21T05:26:02.348Z,18.52
2022-10-21T05:28:30.433Z,18.15
2022-10-21T05:30:58.426Z,17.67
2022-10-21T05:33:26.418Z,18.10
2022-10-21T05:35:58.788Z,18.15
2022-10-21T05:38:26.837Z,18.52
2022-10-21T05:40:56.671Z,18.17
2022-10-21T05:43:25.155Z,19.13
2022-10-21T05:45:53.109Z,19.67
2022-10-21T05:48:21.200Z,18.73
2022-10-21T05:50:52.774Z,18.67
2022-10-21T05:53:20.903Z,19.55
2022-10-21T05:55:58.183Z,18.98
2022-10-21T05:58:26.891Z,18.42
2022-10-21T06:00:55.477Z,17.73
2022-10-21T06:03:24.013Z,18.45
2022-10-21T06:05:52.041Z,19.65
2022-10-21T06:08:20.081Z,18.33
2022-10-21T06:10:48.054Z,18.58
2022-10-21T06:13:17.449Z,18.67
2022-10-21T06:15:48.745Z,18.35
2022-10-21T06:18:18.329Z,19.00
2022-10-21T06:20:46.304Z,19.55
2022-10-21T06:23:16.248Z,18.73
2022-10-21T06:25:44.565Z,19.88
2022-10-21T06:28:12.574Z,19.63
2022-10-21T06:30:41.972Z,19.30
2022-10-21T06:33:09.940Z,19.42
2022-10-21T06:35:37.990Z,19.38
2022-10-21T06:38:05.965Z,18.42
2022-10-21T06:40:34.033Z,19.63
2022-10-21T06:43:02.177Z,19.98
2022-10-21T06:45:30.210Z,18.35
2022-10-21T06:47:59.736Z,18.55
2022-10-21T06:50:27.854Z,19.17
2022-10-21T06:52:56.126Z,19.23
2022-10-21T06:55:24.162Z,18.48
2022-10-21T06:57:52.190Z,19.10
2022-10-21T07:00:20.301Z,19.63
2022-10-21T07:02:48.366Z,18.33
2022-10-21T07:05:17.959Z,19.23
2022-10-21T07:07:46.077Z,18.85
2022-10-21T07:10:14.333Z,19.05
2022-10-21T07:12:42.337Z,19.10
2022-10-21T07:15:11.090Z,18.77
2022-10-21T07:17:39.370Z,19.77
2022-10-21T07:20:08.389Z,19.30
2022-10-21T07:22:37.751Z,18.80
2022-10-21T07:25:06.502Z,19.02
2022-10-21T07:27:34.604Z,18.48
2022-10-21T07:30:02.678Z,18.77
2022-10-21T07:32:30.811Z,17.75
2022-10-21T07:34:58.859Z,17.38
2022-10-21T07:37:26.841Z,15.65
2022-10-21T07:39:56.462Z,15.98
2022-10-21T07:42:24.664Z,16.48
2022-10-21T07:44:57.336Z,16.40
2022-10-21T07:47:25.779Z,15.90
2022-10-21T07:49:54.301Z,15.70
2022-10-21T07:52:22.605Z,16.33
2022-10-21T07:54:50.953Z,16.30
2022-10-21T07:57:20.669Z,15.23
2022-10-21T07:59:48.989Z,16.10
2022-10-21T08:02:17.313Z,15.98
2022-10-21T08:04:45.729Z,16.80
2022-10-21T08:07:14.100Z,15.63
2022-10-21T08:09:42.431Z,15.43
2022-10-21T08:12:14.390Z,16.20
2022-10-21T08:14:45.232Z,15.90
2022-10-21T08:17:13.579Z,15.43
2022-10-21T08:19:41.888Z,16.10
2022-10-21T08:22:10.679Z,15.85
2022-10-21T08:24:42.367Z,16.05
2022-10-21T08:27:10.796Z,15.07
2022-10-21T08:29:40.085Z,15.77
2022-10-21T08:32:10.188Z,16.90
2022-10-21T08:34:38.466Z,16.08
2022-10-21T08:37:06.817Z,15.73
2022-10-21T08:39:35.583Z,16.00
2022-10-21T08:42:09.012Z,15.57
2022-10-21T08:44:49.293Z,16.33
2022-10-21T08:47:25.100Z,14.68
2022-10-21T08:49:59.500Z,14.57
2022-10-21T08:52:38.094Z,14.02
2022-10-21T08:55:09.363Z,14.23
2022-10-21T08:57:38.110Z,14.10
2022-10-21T09:00:15.920Z,13.27
2022-10-21T09:03:06.074Z,13.10
2022-10-21T09:06:08.616Z,12.73
2022-10-21T09:08:43.408Z,12.60
2022-10-21T09:11:25.445Z,12.98
2022-10-21T09:14:23.465Z,12.98
2022-10-21T09:16:59.901Z,12.93
2022-10-21T09:19:41.693Z,13.43
2022-10-21T09:22:36.211Z,13.75
2022-10-21T09:25:19.093Z,12.35
2022-10-21T09:28:03.337Z,13.55
2022-10-21T09:30:31.974Z,12.77
2022-10-21T09:33:01.382Z,13.48
2022-10-21T09:35:37.233Z,13.18
2022-10-21T09:38:09.746Z,13.27
2022-10-21T09:40:38.113Z,12.55
2022-10-21T09:43:12.555Z,12.13
2022-10-21T09:45:42.655Z,12.40
2022-10-21T09:48:24.274Z,12.57
2022-10-21T09:50:57.310Z,12.02
2022-10-21T09:53:30.245Z,11.20
2022-10-21T09:56:03.887Z,11.63
2022-10-21T09:58:49.543Z,11.00
2022-10-21T10:01:20.389Z,11.82
2022-10-21T10:03:50.645Z,11.05
2022-10-21T10:06:35.402Z,10.35
2022-10-21T10:09:10.144Z,10.23
2022-10-21T10:11:50.491Z,10.30
2022-10-21T10:14:31.151Z,9.68
2022-10-21T10:17:19.766Z,10.05
2022-10-21T10:20:13.543Z,10.00
2022-10-21T10:22:44.846Z,10.00
2022-10-21T10:25:22.933Z,9.38
2022-10-21T10:27:53.894Z,8.93
2022-10-21T10:30:23.705Z,9.10
2022-10-21T10:32:53.846Z,9.43
2022-10-21T10:35:30.004Z,8.13
2022-10-21T10:38:02.566Z,8.10
2022-10-21T10:40:38.958Z,8.55
2022-10-21T10:43:14.477Z,8.10
2022-10-21T10:45:49.690Z,8.02
2022-10-21T10:48:25.267Z,8.32
2022-10-21T10:50:53.614Z,8.18
2022-10-21T10:53:32.998Z,8.07
2022-10-21T10:56:14.776Z,7.75
2022-10-21T10:58:47.731Z,7.30
2022-10-21T11:01:26.665Z,7.97
2022-10-21T11:03:58.834Z,7.30
2022-10-21T11:06:36.665Z,6.82
2022-10-21T11:09:09.071Z,7.30
2022-10-21T11:11:40.014Z,7.47
2022-10-21T11:14:17.590Z,7.60
2022-10-21T11:17:06.753Z,7.38
2022-10-21T11:19:53.931Z,7.53
2022-10-21T11:22:30.617Z,7.65
2022-10-21T11:25:05.854Z,7.70
2022-10-21T11:27:55.543Z,8.27
2022-10-21T11:30:29.845Z,7.60
2022-10-21T11:33:06.627Z,9.02
2022-10-21T11:35:45.160Z,7.70
2022-10-21T11:38:30.612Z,8.40
2022-10-21T11:41:06.692Z,7.68
2022-10-21T11:43:44.445Z,7.72
2022-10-21T11:46:18.979Z,8.43
2022-10-21T11:49:08.262Z,8.90
2022-10-21T11:51:47.357Z,8.35
2022-10-21T11:54:32.831Z,7.95
2022-10-21T11:57:07.387Z,8.27
2022-10-21T11:59:54.188Z,8.30
2022-10-21T12:02:33.132Z,7.90
2022-10-21T12:05:07.047Z,7.50
2022-10-21T12:07:51.226Z,7.70
2022-10-21T12:10:32.794Z,7.40
2022-10-21T12:13:07.581Z,8.27
2022-10-21T12:15:41.423Z,7.85
2022-10-21T12:18:16.581Z,8.15
2022-10-21T12:20:48.998Z,7.95
2022-10-21T12:23:21.396Z,7.90
2022-10-21T12:26:06.699Z,7.95
2022-10-21T12:28:40.697Z,8.23
2022-10-21T12:31:24.949Z,7.35
2022-10-21T12:33:54.069Z,7.82
2022-10-21T12:36:45.403Z,7.90
2022-10-21T12:39:19.442Z,7.78
2022-10-21T12:41:48.707Z,7.63
2022-10-21T12:44:30.057Z,8.05
2022-10-21T12:47:03.804Z,7.53
2022-10-21T12:49:34.123Z,8.18
2022-10-21T12:52:10.799Z,7.70
2022-10-21T12:54:44.443Z,8.23
2022-10-21T12:57:25.297Z,7.72
2022-10-21T13:00:15.905Z,7.70
2022-10-21T13:03:03.874Z,7.65
2022-10-21T13:06:03.713Z,7.50
2022-10-21T13:08:40.326Z,7.15
2022-10-21T13:11:23.714Z,7.30
2022-10-21T13:14:25.411Z,7.10
2022-10-21T13:17:14.773Z,7.63
2022-10-21T13:19:43.326Z,7.70
2022-10-21T13:22:18.713Z,7.65
2022-10-21T13:24:47.847Z,7.40
2022-10-21T13:27:31.049Z,7.40
2022-10-21T13:30:00.742Z,7.90
2022-10-21T13:32:32.495Z,6.93
2022-10-21T13:35:27.743Z,6.97
2022-10-21T13:38:00.678Z,7.47
2022-10-21T13:40:33.919Z,7.50
2022-10-21T13:43:06.821Z,7.50
2022-10-21T13:45:37.670Z,7.47
2022-10-21T13:48:14.065Z,7.55
2022-10-21T13:50:44.565Z,7.82
2022-10-21T13:53:29.801Z,8.15
2022-10-21T13:56:00.997Z,8.32
2022-10-21T13:58:31.773Z,8.02
2022-10-21T14:01:09.370Z,9.85
2022-10-21T14:03:39.548Z,9.10
2022-10-21T14:06:09.780Z,9.27
2022-10-21T14:08:42.056Z,8.77
2022-10-21T14:11:17.560Z,9.82
2022-10-21T14:13:47.818Z,8.27
2022-10-21T14:16:21.562Z,8.52
2022-10-21T14:18:51.477Z,8.68
2022-10-21T14:21:22.822Z,9.38
2022-10-21T14:23:51.400Z,9.50
2022-10-21T14:26:20.169Z,9.25
2022-10-21T14:28:50.281Z,8.73
2022-10-21T14:31:19.446Z,8.10
2022-10-21T14:33:49.667Z,8.73
2022-10-21T14:36:23.334Z,8.27
2022-10-21T14:38:58.786Z,7.85
2022-10-21T14:41:29.548Z,8.63
2022-10-21T14:44:05.854Z,8.00
2022-10-21T14:46:42.539Z,7.95
2022-10-21T14:49:22.158Z,8.73
2022-10-21T14:51:57.150Z,9.23
2022-10-21T14:54:29.851Z,9.60
2022-10-21T14:57:00.085Z,9.20
2022-10-21T14:59:35.255Z,8.73
2022-10-21T15:02:04.136Z,8.77
2022-10-21T15:04:51.816Z,10.70
2022-10-21T15:07:29.853Z,11.93
2022-10-21T15:10:18.163Z,11.57
2022-10-21T15:12:47.515Z,9.90
2022-10-21T15:15:48.249Z,9.60
2022-10-21T15:18:23.863Z,8.63
2022-10-21T15:20:54.519Z,8.85
2022-10-21T15:23:27.971Z,8.75
2022-10-21T15:26:00.328Z,8.05
2022-10-21T15:28:31.337Z,8.65
2022-10-21T15:31:00.050Z,8.45
2022-10-21T15:33:28.469Z,9.75
2022-10-21T15:36:04.296Z,8.82
2022-10-21T15:38:33.718Z,9.48
2022-10-21T15:41:01.865Z,9.15
2022-10-21T15:43:29.981Z,8.05
2022-10-21T15:45:58.086Z,8.63
2022-10-21T15:48:26.194Z,8.70
2022-10-21T15:50:57.202Z,8.20
2022-10-21T15:53:25.297Z,8.77
2022-10-21T15:55:55.798Z,8.48
2022-10-21T15:58:26.425Z,10.35
2022-10-21T16:00:54.475Z,9.18
2022-10-21T16:03:22.953Z,13.02
2022-10-21T16:05:51.511Z,10.70
2022-10-21T16:08:19.494Z,10.80
2022-10-21T16:10:49.974Z,9.25
2022-10-21T16:13:19.474Z,10.02
2022-10-21T16:15:47.542Z,9.60
2022-10-21T16:18:16.959Z,8.35
2022-10-21T16:20:46.084Z,9.02
2022-10-21T16:23:14.505Z,8.57
2022-10-21T16:25:42.495Z,8.20
2022-10-21T16:28:13.177Z,7.90
2022-10-21T16:30:42.844Z,7.40
2022-10-21T16:33:11.318Z,9.77
2022-10-21T16:35:39.353Z,20.27
2022-10-21T16:38:07.399Z,18.63
2022-10-21T16:40:36.481Z,15.20
2022-10-21T16:43:04.499Z,11.95
2022-10-21T16:45:33.626Z,13.02
2022-10-21T16:48:06.886Z,11.13
2022-10-21T16:50:39.508Z,9.20
2022-10-21T16:53:08.525Z,8.52
2022-10-21T16:55:36.481Z,8.13
2022-10-21T16:58:04.625Z,8.32
2022-10-21T17:00:32.701Z,8.82
2022-10-21T17:03:02.517Z,6.85
2022-10-21T17:05:30.643Z,7.07
2022-10-21T17:08:00.046Z,6.20
2022-10-21T17:10:28.443Z,6.03
2022-10-21T17:12:59.252Z,5.82
2022-10-21T17:15:28.868Z,6.32
2022-10-21T17:17:56.970Z,5.80
2022-10-21T17:20:30.295Z,5.95
2022-10-21T17:22:58.877Z,6.18
2022-10-21T17:25:27.296Z,6.07
2022-10-21T17:27:55.369Z,6.05
2022-10-21T17:30:23.489Z,6.65
2022-10-21T17:32:51.470Z,6.60
2022-10-21T17:35:19.873Z,8.55
2022-10-21T17:37:50.086Z,11.48
2022-10-21T17:40:20.927Z,7.43
2022-10-21T17:42:49.682Z,11.70
2022-10-21T17:45:19.541Z,16.80
2022-10-21T17:47:47.605Z,10.73
2022-10-21T17:50:18.422Z,12.98
2022-10-21T17:52:46.446Z,8.38
2022-10-21T17:55:15.815Z,7.15
2022-10-21T17:57:43.838Z,6.68
2022-10-21T18:00:12.674Z,7.40
2022-10-21T18:02:41.179Z,7.28
2022-10-21T18:05:10.807Z,7.80
2022-10-21T18:07:39.280Z,13.18
2022-10-21T18:10:09.099Z,8.30
2022-10-21T18:12:38.721Z,8.48
2022-10-21T18:15:07.775Z,8.68
2022-10-21T18:17:37.483Z,8.68
2022-10-21T18:20:07.720Z,9.38
2022-10-21T18:22:36.072Z,9.55
2022-10-21T18:25:04.150Z,8.80
2022-10-21T18:27:32.196Z,8.73
2022-10-21T18:30:01.645Z,8.57
2022-10-21T18:32:29.628Z,9.10
2022-10-21T18:34:57.608Z,8.98
2022-10-21T18:37:28.760Z,9.30
2022-10-21T18:39:58.978Z,9.80
2022-10-21T18:42:27.558Z,10.10
2022-10-21T18:44:55.547Z,10.00
2022-10-21T18:47:24.953Z,9.90
2022-10-21T18:49:53.621Z,9.68
2022-10-21T18:52:21.688Z,10.20
2022-10-21T18:54:49.739Z,10.20
2022-10-21T18:57:17.736Z,10.55
2022-10-21T18:59:45.728Z,11.25
2022-10-21T19:02:20.264Z,11.10
2022-10-21T19:04:52.190Z,11.18
2022-10-21T19:07:20.235Z,11.60
2022-10-21T19:09:48.469Z,12.38
2022-10-21T19:12:21.038Z,11.45
2022-10-21T19:14:51.342Z,11.35
2022-10-21T19:17:20.109Z,13.20
2022-10-21T19:19:50.378Z,12.00
2022-10-21T19:22:18.535Z,11.98
2022-10-21T19:24:46.684Z,11.52
2022-10-21T19:27:15.059Z,11.80
2022-10-21T19:29:43.433Z,12.23
2022-10-21T19:32:13.685Z,12.73
2022-10-21T19:34:41.779Z,12.30
2022-10-21T19:37:12.524Z,12.57
2022-10-21T19:39:40.953Z,12.70
2022-10-21T19:42:08.999Z,13.32
2022-10-21T19:44:37.238Z,16.60
2022-10-21T19:47:05.322Z,12.93
2022-10-21T19:49:33.920Z,13.13
2022-10-21T19:52:03.196Z,13.40
2022-10-21T19:54:32.615Z,14.02
2022-10-21T19:57:00.634Z,13.98
2022-10-21T19:59:28.762Z,13.20
2022-10-21T20:01:56.864Z,14.25
2022-10-21T20:04:24.848Z,14.00
2022-10-21T20:06:52.927Z,13.65
2022-10-21T20:09:21.013Z,14.05
2022-10-21T20:11:50.441Z,19.10
2022-10-21T20:14:18.563Z,18.35
2022-10-21T20:16:49.977Z,29.58
2022-10-21T20:19:18.069Z,18.20
2022-10-21T20:21:46.227Z,15.38
2022-10-21T20:24:16.093Z,25.58
2022-10-21T20:26:45.652Z,28.77
2022-10-21T20:29:15.572Z,20.17
2022-10-21T20:31:43.675Z,20.48
2022-10-21T20:34:13.515Z,17.23
2022-10-21T20:36:41.911Z,16.90
2022-10-21T20:39:10.473Z,17.30
2022-10-21T20:41:38.654Z,16.98
2022-10-21T20:44:08.650Z,17.15
2022-10-21T20:46:38.537Z,16.58
2022-10-21T20:49:08.509Z,15.63
2022-10-21T20:51:38.430Z,17.20
2022-10-21T20:54:08.694Z,16.00
2022-10-21T20:56:38.860Z,14.90
2022-10-21T20:59:07.966Z,15.85
2022-10-21T21:01:41.924Z,15.43
2022-10-21T21:04:12.616Z,15.85
2022-10-21T21:06:42.642Z,15.77
2022-10-21T21:14:32.433Z,14.90
2022-10-21T21:17:01.866Z,15.77
2022-10-21T21:19:29.923Z,16.75
2022-10-21T21:21:57.971Z,16.17
2022-10-21T21:24:26.049Z,17.20
2022-10-21T21:26:54.047Z,15.55
2022-10-21T21:29:22.046Z,16.33
2022-10-21T21:31:50.113Z,14.80
2022-10-21T21:34:19.594Z,16.10
2022-10-21T21:36:47.587Z,15.88
2022-10-21T21:41:48.534Z,16.02
2022-10-21T21:44:16.586Z,15.63
2022-10-21T21:46:44.622Z,15.00
2022-10-21T21:49:12.638Z,16.67
2022-10-21T21:51:42.009Z,16.17
2022-10-21T21:54:10.046Z,17.30
2022-10-21T21:56:38.146Z,16.50
2022-10-21T21:59:06.175Z,16.15
2022-10-21T22:01:34.260Z,16.58
2022-10-21T22:04:02.359Z,16.13
2022-10-21T22:06:31.979Z,17.73
2022-10-21T22:09:02.964Z,17.63
2022-10-21T22:11:33.539Z,15.88
2022-10-21T22:14:01.754Z,16.33
2022-10-21T22:16:31.060Z,16.90
2022-10-21T22:19:01.289Z,15.25
2022-10-21T22:21:31.436Z,15.52
2022-10-21T22:24:00.985Z,17.45
2022-10-21T22:26:29.912Z,16.77
2022-10-21T22:28:58.117Z,17.13
2022-10-21T22:31:29.455Z,16.35
2022-10-21T22:34:00.527Z,18.60
2022-10-21T22:36:28.641Z,19.10
2022-10-21T22:38:56.639Z,16.10
2022-10-21T22:41:26.646Z,16.85
2022-10-21T22:43:54.744Z,15.45
2022-10-21T22:46:34.247Z,16.75
2022-10-21T22:49:03.604Z,16.33
2022-10-21T22:51:31.601Z,15.75
2022-10-21T22:53:59.787Z,15.02
2022-10-21T22:56:29.298Z,15.82
2022-10-21T22:58:57.879Z,16.92
2022-10-21T23:01:28.956Z,16.35
2022-10-21T23:03:57.981Z,15.63
2022-10-21T23:06:25.976Z,15.98
2022-10-21T23:08:54.043Z,16.20
2022-10-21T23:11:22.110Z,16.10
2022-10-21T23:14:02.493Z,15.65
2022-10-21T23:16:32.165Z,15.82
2022-10-21T23:19:00.593Z,16.00
2022-10-21T23:21:29.032Z,15.25
2022-10-21T23:23:57.504Z,14.98
2022-10-21T23:26:25.910Z,14.82
2022-10-21T23:28:55.457Z,15.68
2022-10-21T23:31:23.441Z,15.65
2022-10-21T23:33:51.471Z,14.95
2022-10-21T23:36:19.514Z,14.73
2022-10-21T23:38:47.545Z,14.57
2022-10-21T23:41:15.529Z,15.30
2022-10-21T23:43:43.538Z,14.07
2022-10-21T23:46:12.973Z,15.40
2022-10-21T23:48:41.115Z,15.32
2022-10-21T23:51:09.268Z,15.50
2022-10-21T23:53:37.342Z,14.48
2022-10-21T23:56:05.967Z,15.68
2022-10-21T23:58:33.981Z,15.10
